createdAt,value
2023-03-28T00:01:12.906Z,6.66
2023-03-28T00:03:40.397Z,6.66
2023-03-28T00:06:11.239Z,6.44
2023-03-28T00:08:39.459Z,6.45
2023-03-28T00:11:12.581Z,6.42
2023-03-28T00:13:39.140Z,6.31
2023-03-28T00:16:12.864Z,6.30
2023-03-28T00:18:41.396Z,6.39
2023-03-28T00:21:25.615Z,6.52
2023-03-28T00:23:53.704Z,6.49
2023-03-28T00:26:24.624Z,6.56
2023-03-28T00:28:51.975Z,6.48
2023-03-28T00:31:18.726Z,6.53
2023-03-28T00:33:47.541Z,6.54
2023-03-28T00:36:18.612Z,6.50
2023-03-28T00:38:45.950Z,6.54
2023-03-28T00:41:15.916Z,6.58
2023-03-28T00:43:47.311Z,6.48
2023-03-28T00:46:21.243Z,6.34
2023-03-28T00:48:52.752Z,6.31
2023-03-28T00:51:25.944Z,6.26
2023-03-28T00:53:58.044Z,6.37
2023-03-28T00:56:25.541Z,6.30
2023-03-28T00:58:52.545Z,6.21
2023-03-28T01:01:20.574Z,6.24
2023-03-28T01:03:52.261Z,6.01
2023-03-28T01:06:21.567Z,5.93
2023-03-28T01:08:48.987Z,5.79
2023-03-28T01:11:16.428Z,5.78
2023-03-28T01:13:48.383Z,5.65
2023-03-28T01:16:15.920Z,5.61
2023-03-28T01:18:47.049Z,5.52
2023-03-28T01:21:48.847Z,5.58
2023-03-28T01:24:18.124Z,5.54
2023-03-28T01:27:44.075Z,5.45
2023-03-28T01:30:34.084Z,5.32
2023-03-28T01:33:16.001Z,5.30
2023-03-28T01:36:10.339Z,5.21
2023-03-28T01:38:54.704Z,5.12
2023-03-28T01:41:29.021Z,5.14
2023-03-28T01:44:22.105Z,5.25
2023-03-28T01:46:59.971Z,5.04
2023-03-28T01:49:42.037Z,5.09
2023-03-28T01:52:31.446Z,5.00
2023-03-28T01:55:06.733Z,5.16
2023-03-28T01:57:41.389Z,5.08
2023-03-28T02:00:21.535Z,5.00
2023-03-28T02:03:00.834Z,5.00
2023-03-28T02:05:29.483Z,4.83
2023-03-28T02:07:57.842Z,4.83
2023-03-28T02:10:27.210Z,4.71
2023-03-28T02:13:01.959Z,4.86
2023-03-28T02:15:31.110Z,4.81
2023-03-28T02:18:03.365Z,4.90
2023-03-28T02:20:32.830Z,4.96
2023-03-28T02:23:27.101Z,4.99
2023-03-28T02:25:53.669Z,5.01
2023-03-28T02:28:21.894Z,5.02
2023-03-28T02:30:48.813Z,5.13
2023-03-28T02:33:39.664Z,5.24
2023-03-28T02:36:15.510Z,5.30
2023-03-28T02:39:03.888Z,5.29
2023-03-28T02:41:58.328Z,5.37
2023-03-28T02:44:36.922Z,5.36
2023-03-28T02:47:06.407Z,5.41
2023-03-28T02:49:52.191Z,5.44
2023-03-28T02:52:35.383Z,5.39
2023-03-28T02:55:13.320Z,5.43
2023-03-28T02:57:48.800Z,5.49
2023-03-28T03:00:19.315Z,5.52
2023-03-28T03:02:49.390Z,5.54
2023-03-28T03:05:17.643Z,5.58
2023-03-28T03:07:44.188Z,5.73
2023-03-28T03:10:12.248Z,5.47
2023-03-28T03:12:39.147Z,5.41
2023-03-28T03:15:07.277Z,5.35
2023-03-28T03:17:33.787Z,5.32
2023-03-28T03:20:02.590Z,5.46
2023-03-28T03:22:29.109Z,5.63
2023-03-28T03:24:56.543Z,5.73
2023-03-28T03:27:22.974Z,5.54
2023-03-28T03:29:49.428Z,5.53
2023-03-28T03:32:15.929Z,5.48
2023-03-28T03:34:42.453Z,5.46
2023-03-28T03:37:09.586Z,5.33
2023-03-28T03:39:36.328Z,5.20
2023-03-28T03:42:04.066Z,5.06
2023-03-28T03:44:30.584Z,5.04
2023-03-28T03:46:57.910Z,4.85
2023-03-28T03:49:24.566Z,4.64
2023-03-28T03:51:51.673Z,4.63
2023-03-28T03:54:18.613Z,4.56
2023-03-28T03:56:46.070Z,4.62
2023-03-28T03:59:12.708Z,4.74
2023-03-28T04:01:39.990Z,4.69
2023-03-28T04:04:07.664Z,4.79
2023-03-28T04:06:34.462Z,4.65
2023-03-28T04:09:00.945Z,4.66
2023-03-28T04:11:27.456Z,4.57
2023-03-28T04:13:53.908Z,4.56
2023-03-28T04:16:20.879Z,4.69
2023-03-28T04:18:50.785Z,4.67
2023-03-28T04:21:20.765Z,4.55
2023-03-28T04:23:48.366Z,4.54
2023-03-28T04:26:15.492Z,4.55
2023-03-28T04:28:42.068Z,4.39
2023-03-28T04:31:12.100Z,4.43
2023-03-28T04:33:40.172Z,4.30
2023-03-28T04:36:07.990Z,4.15
2023-03-28T04:38:37.909Z,4.10
2023-03-28T04:41:05.442Z,4.10
2023-03-28T04:43:32.401Z,3.88
2023-03-28T04:45:59.854Z,3.80
2023-03-28T04:48:27.485Z,3.84
2023-03-28T04:50:54.795Z,3.47
2023-03-28T04:53:22.379Z,3.58
2023-03-28T04:55:50.223Z,3.32
2023-03-28T04:58:22.304Z,3.36
2023-03-28T05:00:49.841Z,3.45
2023-03-28T05:03:19.114Z,3.39
2023-03-28T05:05:47.840Z,3.25
2023-03-28T05:08:16.473Z,3.51
2023-03-28T05:10:45.223Z,3.51
2023-03-28T05:13:12.212Z,3.62
2023-03-28T05:15:38.806Z,3.46
2023-03-28T05:18:05.757Z,3.41
2023-03-28T05:20:33.334Z,3.43
2023-03-28T05:23:01.171Z,3.27
2023-03-28T05:25:27.711Z,3.42
2023-03-28T05:27:54.392Z,3.61
2023-03-28T05:30:21.090Z,3.56
2023-03-28T05:32:47.654Z,3.56
2023-03-28T05:35:16.158Z,3.75
2023-03-28T05:37:46.250Z,3.71
2023-03-28T05:40:14.432Z,3.86
2023-03-28T05:42:41.146Z,3.78
2023-03-28T05:45:09.780Z,3.73
2023-03-28T05:47:36.395Z,3.83
2023-03-28T05:50:03.785Z,3.75
2023-03-28T05:52:30.379Z,4.03
2023-03-28T05:54:57.461Z,4.10
2023-03-28T05:57:25.140Z,4.32
2023-03-28T05:59:51.738Z,4.75
2023-03-28T06:02:20.835Z,5.04
2023-03-28T06:04:47.686Z,5.05
2023-03-28T06:07:14.896Z,5.31
2023-03-28T06:09:42.165Z,5.47
2023-03-28T06:12:08.758Z,5.68
2023-03-28T06:14:35.320Z,5.90
2023-03-28T06:17:01.832Z,6.17
2023-03-28T06:19:28.480Z,6.47
2023-03-28T06:21:55.104Z,6.52
2023-03-28T06:24:22.095Z,6.89
2023-03-28T06:26:48.539Z,6.83
2023-03-28T06:29:16.239Z,7.36
2023-03-28T06:31:42.914Z,7.73
2023-03-28T06:34:09.476Z,7.74
2023-03-28T06:36:36.112Z,7.67
2023-03-28T06:39:02.704Z,7.89
2023-03-28T06:41:29.217Z,8.34
2023-03-28T06:43:55.831Z,8.10
2023-03-28T06:46:22.358Z,8.55
2023-03-28T06:48:48.887Z,8.97
2023-03-28T06:51:15.489Z,8.83
2023-03-28T06:53:42.003Z,9.26
2023-03-28T06:56:09.008Z,9.62
2023-03-28T06:58:35.605Z,9.84
2023-03-28T07:01:02.569Z,10.13
2023-03-28T07:03:30.288Z,10.17
2023-03-28T07:05:57.083Z,9.68
2023-03-28T07:08:24.233Z,9.99
2023-03-28T07:10:50.933Z,10.53
2023-03-28T07:13:17.485Z,10.96
2023-03-28T07:15:43.984Z,10.97
2023-03-28T07:18:10.742Z,11.37
2023-03-28T07:20:40.744Z,11.78
2023-03-28T07:23:07.460Z,12.05
2023-03-28T07:25:34.603Z,11.93
2023-03-28T07:28:01.163Z,12.05
2023-03-28T07:30:27.647Z,12.42
2023-03-28T07:33:03.966Z,12.43
2023-03-28T07:35:41.191Z,12.96
2023-03-28T07:38:08.093Z,13.08
2023-03-28T07:40:34.599Z,13.24
2023-03-28T07:43:01.306Z,13.66
2023-03-28T07:45:27.977Z,13.67
2023-03-28T07:47:54.611Z,13.49
2023-03-28T07:50:23.591Z,13.03
2023-03-28T07:52:57.359Z,13.82
2023-03-28T07:55:26.251Z,14.49
2023-03-28T07:57:53.176Z,13.82
2023-03-28T08:00:22.698Z,14.22
2023-03-28T08:02:50.061Z,15.12
2023-03-28T08:05:17.409Z,15.26
2023-03-28T08:07:46.043Z,15.33
2023-03-28T08:10:14.070Z,14.26
2023-03-28T08:12:40.721Z,14.33
2023-03-28T08:15:07.858Z,14.60
2023-03-28T08:17:34.829Z,14.97
2023-03-28T08:20:01.466Z,15.25
2023-03-28T08:22:28.016Z,15.29
2023-03-28T08:24:54.502Z,15.04
2023-03-28T08:27:21.082Z,15.13
2023-03-28T08:29:47.824Z,15.56
2023-03-28T08:32:14.463Z,14.78
2023-03-28T08:34:41.256Z,15.67
2023-03-28T08:37:08.369Z,16.34
2023-03-28T08:39:35.079Z,16.50
2023-03-28T08:42:05.848Z,16.61
2023-03-28T08:44:59.810Z,17.49
2023-03-28T08:47:30.046Z,17.38
2023-03-28T08:50:13.433Z,16.82
2023-03-28T08:52:40.839Z,17.87
2023-03-28T08:55:28.117Z,18.47
2023-03-28T08:57:55.903Z,18.83
2023-03-28T09:00:28.008Z,17.05
2023-03-28T09:02:55.070Z,17.43
2023-03-28T09:05:44.438Z,18.29
2023-03-28T09:08:32.521Z,18.10
2023-03-28T09:11:17.604Z,18.75
2023-03-28T09:13:54.126Z,18.83
2023-03-28T09:16:39.374Z,19.60
2023-03-28T09:19:10.854Z,19.59
2023-03-28T09:21:48.507Z,20.02
2023-03-28T09:25:17.679Z,18.52
2023-03-28T09:28:06.291Z,18.87
2023-03-28T09:30:37.613Z,19.18
2023-03-28T09:33:10.999Z,18.46
2023-03-28T09:35:39.638Z,18.93
2023-03-28T09:38:21.094Z,18.74
2023-03-28T09:40:49.367Z,18.16
2023-03-28T09:43:26.660Z,19.00
2023-03-28T09:46:04.900Z,18.96
2023-03-28T09:48:37.323Z,19.18
2023-03-28T09:51:06.007Z,19.18
2023-03-28T09:53:35.306Z,20.01
2023-03-28T09:56:13.173Z,20.38
2023-03-28T09:59:02.365Z,19.93
2023-03-28T10:01:37.742Z,20.61
2023-03-28T10:04:19.878Z,20.46
2023-03-28T10:06:48.208Z,19.43
2023-03-28T10:09:20.746Z,18.73
2023-03-28T10:12:13.230Z,18.69
2023-03-28T10:14:43.196Z,18.35
2023-03-28T10:17:25.899Z,19.30
2023-03-28T10:19:58.761Z,19.16
2023-03-28T10:22:37.838Z,19.58
2023-03-28T10:25:07.340Z,20.12
2023-03-28T10:27:35.402Z,20.85
2023-03-28T10:30:17.945Z,20.09
2023-03-28T10:32:44.580Z,20.43
2023-03-28T10:35:27.917Z,20.18
2023-03-28T10:37:55.312Z,19.80
2023-03-28T10:40:22.412Z,19.08
2023-03-28T10:42:52.520Z,19.01
2023-03-28T10:45:20.784Z,18.18
2023-03-28T10:47:50.567Z,18.45
2023-03-28T10:50:40.661Z,18.41
2023-03-28T10:53:10.520Z,18.75
2023-03-28T10:55:41.806Z,19.00
2023-03-28T10:58:52.944Z,19.18
2023-03-28T11:01:22.211Z,17.89
2023-03-28T11:03:57.931Z,18.58
2023-03-28T11:06:40.540Z,18.91
2023-03-28T11:09:13.355Z,18.96
2023-03-28T11:12:07.147Z,19.02
2023-03-28T11:15:07.895Z,17.97
2023-03-28T11:18:22.495Z,18.49
2023-03-28T11:21:12.635Z,19.58
2023-03-28T11:23:49.043Z,20.12
2023-03-28T11:26:27.027Z,19.01
2023-03-28T11:29:25.902Z,19.48
2023-03-28T11:32:17.738Z,19.72
2023-03-28T11:34:47.931Z,19.58
2023-03-28T11:37:26.840Z,19.70
2023-03-28T11:40:13.910Z,19.58
2023-03-28T11:42:51.645Z,19.87
2023-03-28T11:45:41.932Z,20.02
2023-03-28T11:48:29.109Z,20.98
2023-03-28T11:51:06.411Z,20.63
2023-03-28T11:53:51.565Z,20.76
2023-03-28T11:56:23.356Z,21.12
2023-03-28T11:58:56.634Z,20.79
2023-03-28T12:01:29.126Z,21.15
2023-03-28T12:03:59.004Z,20.11
2023-03-28T12:07:03.478Z,20.82
2023-03-28T12:09:57.512Z,20.80
2023-03-28T12:12:27.317Z,20.79
2023-03-28T12:15:02.182Z,20.13
2023-03-28T12:17:34.380Z,19.76
2023-03-28T12:20:00.939Z,19.39
2023-03-28T12:22:36.380Z,19.75
2023-03-28T12:25:17.756Z,20.04
2023-03-28T12:28:01.273Z,20.28
2023-03-28T12:30:37.212Z,20.19
2023-03-28T12:33:18.520Z,19.87
2023-03-28T12:36:09.539Z,19.07
2023-03-28T12:38:47.082Z,18.67
2023-03-28T12:41:21.233Z,17.31
2023-03-28T12:43:58.325Z,17.70
2023-03-28T12:46:29.708Z,18.90
2023-03-28T12:49:05.897Z,19.43
2023-03-28T12:51:43.133Z,20.13
2023-03-28T12:54:24.043Z,19.83
2023-03-28T12:57:08.594Z,19.83
2023-03-28T12:59:39.851Z,18.68
2023-03-28T13:02:33.395Z,18.56
2023-03-28T13:05:22.934Z,19.23
2023-03-28T13:08:00.391Z,17.95
2023-03-28T13:10:41.737Z,18.10
2023-03-28T13:13:35.922Z,18.36
2023-03-28T13:16:22.487Z,18.65
2023-03-28T13:19:05.511Z,18.46
2023-03-28T13:21:44.641Z,19.08
2023-03-28T13:24:26.396Z,19.45
2023-03-28T13:27:00.752Z,19.29
2023-03-28T13:29:58.461Z,19.51
2023-03-28T13:32:25.919Z,19.79
2023-03-28T13:34:57.833Z,19.77
2023-03-28T13:37:26.741Z,19.38
2023-03-28T13:39:59.186Z,18.51
2023-03-28T13:42:34.554Z,19.52
2023-03-28T13:45:14.333Z,19.65
2023-03-28T13:47:42.348Z,19.74
2023-03-28T13:50:26.562Z,19.68
2023-03-28T13:52:53.069Z,19.14
2023-03-28T13:55:24.304Z,19.59
2023-03-28T13:57:52.264Z,19.79
2023-03-28T14:00:24.266Z,20.35
2023-03-28T14:02:53.404Z,19.93
2023-03-28T14:05:24.443Z,19.77
2023-03-28T14:07:52.901Z,19.32
2023-03-28T14:10:32.526Z,17.68
2023-03-28T14:13:03.760Z,18.30
2023-03-28T14:15:36.156Z,18.59
2023-03-28T14:18:03.532Z,18.59
2023-03-28T14:20:33.129Z,18.29
2023-03-28T14:23:01.614Z,18.31
2023-03-28T14:25:28.809Z,18.07
2023-03-28T14:27:56.984Z,17.73
2023-03-28T14:30:23.647Z,17.58
2023-03-28T14:32:58.847Z,17.73
2023-03-28T14:35:31.640Z,17.86
2023-03-28T14:38:01.624Z,17.03
2023-03-28T14:40:38.076Z,16.51
2023-03-28T14:43:07.323Z,16.25
2023-03-28T14:45:37.618Z,16.20
2023-03-28T14:48:08.717Z,16.53
2023-03-28T14:50:40.554Z,16.29
2023-03-28T14:53:12.600Z,16.52
2023-03-28T14:55:41.813Z,16.77
2023-03-28T14:58:12.870Z,15.77
2023-03-28T15:00:45.168Z,15.79
2023-03-28T15:03:16.654Z,15.90
2023-03-28T15:05:45.355Z,15.86
2023-03-28T15:08:34.113Z,15.49
2023-03-28T15:11:12.856Z,15.26
2023-03-28T15:13:41.675Z,15.04
2023-03-28T15:16:09.245Z,14.71
2023-03-28T15:18:44.329Z,14.67
2023-03-28T15:21:11.724Z,14.83
2023-03-28T15:23:48.354Z,14.68
2023-03-28T15:26:26.247Z,14.35
2023-03-28T15:28:55.869Z,13.98
2023-03-28T15:31:22.679Z,14.02
2023-03-28T15:33:51.784Z,14.02
2023-03-28T15:36:22.664Z,14.02
2023-03-28T15:38:51.380Z,14.09
2023-03-28T15:41:41.113Z,14.14
2023-03-28T15:44:31.111Z,14.28
2023-03-28T15:47:07.328Z,14.01
2023-03-28T15:49:36.781Z,14.03
2023-03-28T15:52:09.380Z,14.11
2023-03-28T15:54:42.199Z,13.85
2023-03-28T15:57:14.467Z,13.84
2023-03-28T15:59:45.263Z,13.92
2023-03-28T16:02:23.775Z,13.66
2023-03-28T16:05:16.681Z,13.79
2023-03-28T16:07:46.181Z,13.75
2023-03-28T16:10:15.520Z,13.45
2023-03-28T16:12:43.011Z,13.42
2023-03-28T16:15:10.034Z,13.43
2023-03-28T16:17:36.718Z,13.48
2023-03-28T16:20:13.673Z,13.46
2023-03-28T16:22:40.157Z,13.40
2023-03-28T16:25:06.969Z,13.29
2023-03-28T16:27:34.911Z,13.19
2023-03-28T16:30:04.362Z,13.08
2023-03-28T16:32:30.823Z,13.01
2023-03-28T16:34:57.963Z,13.04
2023-03-28T16:37:24.503Z,13.03
2023-03-28T16:39:51.434Z,13.05
2023-03-28T16:42:20.859Z,13.02
2023-03-28T16:44:47.578Z,12.98
2023-03-28T16:47:15.571Z,12.99
2023-03-28T16:49:42.122Z,13.02
2023-03-28T16:52:08.643Z,12.90
2023-03-28T16:54:35.180Z,12.79
2023-03-28T16:57:02.511Z,12.98
2023-03-28T16:59:29.060Z,13.01
2023-03-28T17:01:56.024Z,13.11
2023-03-28T17:04:22.576Z,13.01
2023-03-28T17:06:49.193Z,13.00
2023-03-28T17:09:16.007Z,12.93
2023-03-28T17:11:42.962Z,12.82
2023-03-28T17:14:09.582Z,12.86
2023-03-28T17:16:40.247Z,12.65
2023-03-28T17:19:07.417Z,12.73
2023-03-28T17:21:35.030Z,12.60
2023-03-28T17:24:02.090Z,12.44
2023-03-28T17:26:28.664Z,12.34
2023-03-28T17:28:58.241Z,12.32
2023-03-28T17:31:25.091Z,12.29
2023-03-28T17:33:51.667Z,12.25
2023-03-28T17:36:22.429Z,12.16
2023-03-28T17:38:56.296Z,12.13
2023-03-28T17:41:23.464Z,12.18
2023-03-28T17:43:51.252Z,12.12
2023-03-28T17:46:18.533Z,12.11
2023-03-28T17:48:45.834Z,12.02
2023-03-28T17:51:12.590Z,12.03
2023-03-28T17:53:40.153Z,12.06
2023-03-28T17:56:07.239Z,12.10
2023-03-28T17:58:34.443Z,11.99
2023-03-28T18:01:01.248Z,11.84
2023-03-28T18:03:28.579Z,11.72
2023-03-28T18:06:00.402Z,11.71
2023-03-28T18:08:28.489Z,11.72
2023-03-28T18:11:00.851Z,11.76
2023-03-28T18:13:27.562Z,11.79
2023-03-28T18:15:54.153Z,11.79
2023-03-28T18:18:20.654Z,11.72
2023-03-28T18:20:47.264Z,11.82
2023-03-28T18:23:14.057Z,11.79
2023-03-28T18:25:41.300Z,11.60
2023-03-28T18:28:07.876Z,11.62
2023-03-28T18:30:34.330Z,11.62
2023-03-28T18:33:00.952Z,11.61
2023-03-28T18:35:27.777Z,11.66
2023-03-28T18:37:54.277Z,11.73
2023-03-28T18:40:20.748Z,11.74
2023-03-28T18:42:47.361Z,11.64
2023-03-28T18:45:13.884Z,11.69
2023-03-28T18:47:41.134Z,11.54
2023-03-28T18:50:10.405Z,11.45
2023-03-28T18:52:37.575Z,11.46
2023-03-28T18:55:07.514Z,11.45
2023-03-28T18:57:34.978Z,11.49
2023-03-28T19:00:02.038Z,11.42
2023-03-28T19:02:29.007Z,11.43
2023-03-28T19:04:56.180Z,11.32
2023-03-28T19:07:22.691Z,11.31
2023-03-28T19:09:49.330Z,11.27
2023-03-28T19:12:16.415Z,11.23
2023-03-28T19:14:42.894Z,11.29
2023-03-28T19:17:09.636Z,11.28
2023-03-28T19:19:37.559Z,11.29
2023-03-28T19:22:06.336Z,11.27
2023-03-28T19:24:33.823Z,11.17
2023-03-28T19:27:02.589Z,11.23
2023-03-28T19:29:32.157Z,11.19
2023-03-28T19:31:58.780Z,11.11
2023-03-28T19:34:25.332Z,11.15
2023-03-28T19:36:51.899Z,11.19
2023-03-28T19:39:18.614Z,11.11
2023-03-28T19:41:45.114Z,11.05
2023-03-28T19:44:11.636Z,10.97
2023-03-28T19:46:38.889Z,11.02
2023-03-28T19:49:06.552Z,11.03
2023-03-28T19:51:33.878Z,11.10
2023-03-28T19:54:00.712Z,11.10
2023-03-28T19:56:27.407Z,10.80
2023-03-28T19:58:53.912Z,10.89
2023-03-28T20:01:20.736Z,10.93
2023-03-28T20:03:52.244Z,10.92
2023-03-28T20:06:20.412Z,11.01
2023-03-28T20:08:47.152Z,10.99
2023-03-28T20:11:14.773Z,10.96
2023-03-28T20:13:42.005Z,11.00
2023-03-28T20:16:09.877Z,10.93
2023-03-28T20:18:37.141Z,10.85
2023-03-28T20:21:07.150Z,10.93
2023-03-28T20:23:33.727Z,10.98
2023-03-28T20:26:01.641Z,10.93
2023-03-28T20:28:32.600Z,10.91
2023-03-28T20:30:59.476Z,10.86
2023-03-28T20:33:26.288Z,10.71
2023-03-28T20:35:54.766Z,10.63
2023-03-28T20:38:21.679Z,10.56
2023-03-28T20:40:48.386Z,10.68
2023-03-28T20:43:20.116Z,10.72
2023-03-28T20:45:53.668Z,10.68
2023-03-28T20:48:34.280Z,10.66
2023-03-28T20:51:14.421Z,10.57
2023-03-28T20:53:42.092Z,10.54
2023-03-28T20:56:09.562Z,10.42
2023-03-28T20:58:38.908Z,10.40
2023-03-28T21:01:09.101Z,10.52
2023-03-28T21:03:53.327Z,10.50
2023-03-28T21:06:25.227Z,10.51
2023-03-28T21:08:54.197Z,10.61
2023-03-28T21:11:23.760Z,10.66
2023-03-28T21:13:50.635Z,10.67
2023-03-28T21:16:17.369Z,10.72
2023-03-28T21:18:44.737Z,10.57
2023-03-28T21:21:13.268Z,10.46
2023-03-28T21:23:41.009Z,10.48
2023-03-28T21:26:13.010Z,10.51
2023-03-28T21:28:40.066Z,10.51
2023-03-28T21:31:18.377Z,10.31
2023-03-28T21:33:46.695Z,10.24
2023-03-28T21:36:16.282Z,10.28
2023-03-28T21:38:44.443Z,10.22
2023-03-28T21:41:12.146Z,10.19
2023-03-28T21:43:38.982Z,10.20
2023-03-28T21:46:07.611Z,10.28
2023-03-28T21:48:34.682Z,10.21
2023-03-28T21:51:01.734Z,10.31
2023-03-28T21:53:31.840Z,10.15
2023-03-28T21:55:59.569Z,10.10
2023-03-28T21:58:28.687Z,10.15
2023-03-28T22:00:55.769Z,10.12
2023-03-28T22:03:22.720Z,10.08
2023-03-28T22:05:54.733Z,9.97
2023-03-28T22:08:22.364Z,9.98
2023-03-28T22:11:01.218Z,9.88
2023-03-28T22:13:29.716Z,10.03
2023-03-28T22:16:00.265Z,9.85
2023-03-28T22:18:27.873Z,9.95
2023-03-28T22:20:54.608Z,9.99
2023-03-28T22:23:23.329Z,10.01
2023-03-28T22:25:50.768Z,10.05
2023-03-28T22:28:18.603Z,9.97
2023-03-28T22:30:45.178Z,10.02
2023-03-28T22:33:13.458Z,10.02
2023-03-28T22:35:40.355Z,10.06
2023-03-28T22:38:06.858Z,9.95
2023-03-28T22:40:33.810Z,10.01
2023-03-28T22:43:00.707Z,10.01
2023-03-28T22:45:27.624Z,10.02
2023-03-28T22:47:54.270Z,9.93
2023-03-28T22:50:22.613Z,9.95
2023-03-28T22:52:52.671Z,9.97
2023-03-28T22:55:22.332Z,9.89
2023-03-28T22:57:51.666Z,9.90
2023-03-28T23:00:21.573Z,9.90
2023-03-28T23:02:48.773Z,9.82
2023-03-28T23:05:15.617Z,10.00
2023-03-28T23:07:42.152Z,9.90
2023-03-28T23:10:14.410Z,9.83
2023-03-28T23:12:42.477Z,9.83
2023-03-28T23:15:09.357Z,9.86
2023-03-28T23:17:36.280Z,9.89
2023-03-28T23:20:09.914Z,9.77
2023-03-28T23:22:37.091Z,9.91
2023-03-28T23:25:03.846Z,9.80
2023-03-28T23:27:30.432Z,9.89
2023-03-28T23:29:56.959Z,9.86
2023-03-28T23:32:23.727Z,9.92
2023-03-28T23:34:50.227Z,9.80
2023-03-28T23:37:16.758Z,9.96
2023-03-28T23:39:44.667Z,9.95
2023-03-28T23:42:11.166Z,9.96
2023-03-28T23:44:38.013Z,9.97
2023-03-28T23:47:04.593Z,10.02
2023-03-28T23:49:31.075Z,9.89
2023-03-28T23:51:57.593Z,9.98
2023-03-28T23:54:25.806Z,9.95
2023-03-28T23:56:52.558Z,9.80
2023-03-28T23:59:19.205Z,9.86
